createdAt,value
2022-12-06T00:03:01.052Z,4.00
2022-12-06T00:08:03.785Z,3.90
2022-12-06T00:13:06.393Z,3.90
2022-12-06T00:18:08.954Z,3.90
2022-12-06T00:23:11.529Z,3.90
2022-12-06T00:28:13.968Z,3.90
2022-12-06T00:33:16.599Z,3.80
2022-12-06T00:38:19.086Z,3.80
2022-12-06T00:43:21.716Z,3.90
2022-12-06T00:48:24.351Z,4.10
2022-12-06T00:53:27.166Z,4.10
2022-12-06T00:58:29.700Z,4.10
2022-12-06T01:03:35.095Z,4.00
2022-12-06T01:08:39.288Z,3.90
2022-12-06T01:13:42.599Z,4.00
2022-12-06T01:18:45.955Z,4.10
2022-12-06T01:23:49.829Z,4.00
2022-12-06T01:28:52.940Z,4.00
2022-12-06T01:33:55.684Z,3.90
2022-12-06T01:38:58.981Z,4.00
2022-12-06T01:44:01.501Z,4.00
2022-12-06T01:49:07.825Z,4.00
2022-12-06T01:54:13.621Z,4.00
2022-12-06T01:59:17.136Z,4.10
2022-12-06T02:04:20.162Z,4.10
2022-12-06T02:09:24.506Z,4.00
2022-12-06T02:14:33.976Z,4.00
2022-12-06T02:19:57.664Z,4.00
2022-12-06T02:25:13.502Z,4.00
2022-12-06T02:30:42.054Z,4.00
2022-12-06T02:36:04.362Z,3.90
2022-12-06T02:41:30.480Z,3.90
2022-12-06T02:46:37.993Z,4.00
2022-12-06T02:51:41.371Z,4.10
2022-12-06T02:56:43.816Z,4.10
2022-12-06T03:01:52.421Z,4.20
2022-12-06T03:07:04.424Z,4.30
2022-12-06T03:12:28.943Z,4.20
2022-12-06T03:18:10.772Z,4.20
2022-12-06T03:23:22.057Z,4.20
2022-12-06T03:28:24.624Z,4.30
2022-12-06T03:33:29.773Z,4.30
2022-12-06T03:38:37.255Z,4.30
2022-12-06T03:43:39.933Z,4.20
2022-12-06T03:48:47.739Z,4.10
2022-12-06T03:53:51.981Z,4.10
2022-12-06T03:58:54.474Z,3.80
2022-12-06T04:03:57.070Z,3.70
2022-12-06T04:09:19.578Z,3.70
2022-12-06T04:14:22.218Z,3.60
2022-12-06T04:19:24.668Z,3.80
2022-12-06T04:24:27.147Z,3.90
2022-12-06T04:29:48.394Z,3.90
2022-12-06T04:35:09.360Z,4.00
2022-12-06T04:40:12.975Z,4.00
2022-12-06T04:45:15.417Z,4.00
2022-12-06T04:50:17.872Z,4.10
2022-12-06T04:55:20.294Z,4.10
2022-12-06T05:00:22.794Z,4.00
2022-12-06T05:05:25.274Z,4.00
2022-12-06T05:10:27.831Z,4.00
2022-12-06T05:15:30.385Z,4.10
2022-12-06T05:20:32.887Z,4.10
2022-12-06T05:25:35.429Z,4.10
2022-12-06T05:30:37.928Z,4.00
2022-12-06T05:35:40.518Z,3.90
2022-12-06T05:40:44.403Z,4.10
2022-12-06T05:45:47.068Z,3.90
2022-12-06T05:50:50.350Z,4.00
2022-12-06T05:55:52.955Z,4.00
2022-12-06T06:00:55.536Z,4.00
2022-12-06T06:05:59.787Z,4.00
2022-12-06T06:11:02.680Z,4.10
2022-12-06T06:16:05.366Z,4.10
2022-12-06T06:21:07.865Z,4.10
2022-12-06T06:26:11.909Z,3.90
2022-12-06T06:31:14.440Z,3.90
2022-12-06T06:36:17.084Z,3.90
2022-12-06T06:41:19.641Z,4.00
2022-12-06T06:46:22.298Z,3.90
2022-12-06T06:51:24.772Z,3.90
2022-12-06T06:56:27.352Z,4.00
2022-12-06T07:01:29.981Z,3.90
2022-12-06T07:06:32.487Z,4.00
2022-12-06T07:11:34.933Z,4.10
2022-12-06T07:16:37.566Z,4.10
2022-12-06T07:21:40.506Z,4.20
2022-12-06T07:26:43.056Z,4.20
2022-12-06T07:31:45.632Z,4.10
2022-12-06T07:36:48.078Z,4.10
2022-12-06T07:42:08.971Z,4.20
2022-12-06T07:47:17.606Z,4.10
2022-12-06T07:52:20.754Z,4.10
2022-12-06T07:57:23.245Z,4.20
2022-12-06T08:02:27.531Z,4.30
2022-12-06T08:07:31.519Z,4.20
2022-12-06T08:12:34.181Z,4.40
2022-12-06T08:17:36.717Z,4.40
2022-12-06T08:22:39.267Z,4.50
2022-12-06T08:27:41.726Z,4.40
2022-12-06T08:32:44.303Z,4.50
2022-12-06T08:37:46.935Z,4.40
2022-12-06T08:42:49.462Z,4.40
2022-12-06T08:47:51.960Z,4.40
2022-12-06T08:52:54.556Z,4.50
2022-12-06T08:57:57.202Z,4.70
2022-12-06T09:02:59.721Z,4.90
2022-12-06T09:08:02.311Z,4.90
2022-12-06T09:13:04.878Z,4.80
2022-12-06T09:18:07.337Z,4.90
2022-12-06T09:23:09.780Z,5.10
2022-12-06T09:28:12.856Z,5.10
2022-12-06T09:33:15.372Z,5.10
2022-12-06T09:38:20.282Z,5.10
2022-12-06T09:43:50.608Z,5.20
2022-12-06T09:49:18.546Z,5.40
2022-12-06T09:54:30.814Z,5.60
2022-12-06T09:59:44.271Z,5.50
2022-12-06T10:05:17.939Z,5.60
2022-12-06T10:10:35.664Z,5.80
2022-12-06T10:15:59.403Z,5.80
2022-12-06T10:21:19.943Z,5.60
2022-12-06T10:26:30.862Z,5.60
2022-12-06T10:31:54.502Z,5.70
2022-12-06T10:37:13.129Z,5.70
2022-12-06T10:42:34.105Z,5.80
2022-12-06T10:47:43.966Z,5.90
2022-12-06T10:52:49.868Z,6.20
2022-12-06T10:58:17.414Z,6.40
2022-12-06T11:03:28.960Z,6.40
2022-12-06T11:08:42.697Z,6.40
2022-12-06T11:13:56.272Z,6.20
2022-12-06T11:19:26.772Z,6.20
2022-12-06T11:24:36.071Z,6.30
2022-12-06T11:29:38.527Z,6.20
2022-12-06T11:34:53.639Z,5.90
2022-12-06T11:40:09.195Z,5.90
2022-12-06T11:45:28.042Z,5.70
2022-12-06T11:50:32.646Z,5.80
2022-12-06T11:55:42.144Z,5.70
2022-12-06T12:01:10.611Z,5.80
2022-12-06T12:06:25.069Z,5.70
2022-12-06T12:11:33.915Z,5.90
2022-12-06T12:16:43.150Z,5.90
2022-12-06T12:21:50.959Z,5.90
2022-12-06T12:26:56.558Z,5.80
2022-12-06T12:32:00.204Z,5.80
2022-12-06T12:37:04.748Z,5.60
2022-12-06T12:42:31.552Z,5.60
2022-12-06T12:47:34.082Z,5.50
2022-12-06T12:52:39.441Z,5.40
2022-12-06T12:57:44.921Z,5.50
2022-12-06T13:02:57.157Z,5.50
2022-12-06T13:08:30.524Z,5.30
2022-12-06T13:13:36.346Z,5.40
2022-12-06T13:18:52.542Z,5.40
2022-12-06T13:24:06.215Z,5.40
2022-12-06T13:29:24.755Z,5.40
2022-12-06T13:34:47.817Z,5.40
2022-12-06T13:39:53.144Z,5.30
2022-12-06T13:44:59.798Z,5.30
2022-12-06T13:50:22.333Z,5.30
2022-12-06T13:55:25.033Z,5.20
2022-12-06T14:00:30.391Z,5.20
2022-12-06T14:06:01.168Z,5.20
2022-12-06T14:11:06.651Z,5.20
2022-12-06T14:16:12.848Z,8.30
2022-12-06T14:21:40.353Z,5.10
2022-12-06T14:26:42.937Z,5.00
2022-12-06T14:31:45.374Z,5.00
2022-12-06T14:36:48.409Z,5.00
2022-12-06T14:42:10.961Z,5.00
2022-12-06T14:47:15.647Z,4.90
2022-12-06T14:52:31.609Z,4.90
2022-12-06T14:57:39.194Z,4.90
2022-12-06T15:03:04.274Z,4.80
2022-12-06T15:08:28.500Z,4.80
2022-12-06T15:13:31.879Z,4.80
2022-12-06T15:18:39.300Z,4.80
2022-12-06T15:23:53.180Z,4.80
2022-12-06T15:28:55.871Z,1.90
2022-12-06T15:33:58.307Z,4.70
2022-12-06T15:39:00.937Z,4.70
2022-12-06T15:44:05.582Z,4.60
2022-12-06T15:49:09.874Z,4.60
2022-12-06T15:54:24.118Z,4.60
2022-12-06T15:59:26.616Z,4.60
2022-12-06T16:04:32.583Z,4.60
2022-12-06T16:09:35.098Z,4.60
2022-12-06T16:14:37.731Z,4.60
2022-12-06T16:19:59.081Z,4.60
2022-12-06T16:25:02.075Z,4.60
2022-12-06T16:30:06.067Z,6.60
2022-12-06T16:35:08.653Z,4.50
2022-12-06T16:40:19.568Z,4.40
2022-12-06T16:45:22.391Z,1.50
2022-12-06T16:50:26.805Z,4.50
2022-12-06T16:55:29.903Z,4.50
2022-12-06T17:00:32.713Z,4.50
2022-12-06T17:05:35.477Z,4.50
2022-12-06T17:10:37.957Z,4.50
2022-12-06T17:15:40.382Z,4.50
2022-12-06T17:20:43.066Z,4.50
2022-12-06T17:25:45.567Z,4.40
2022-12-06T17:30:51.243Z,4.30
2022-12-06T17:35:55.588Z,4.20
2022-12-06T17:40:58.193Z,4.30
2022-12-06T17:46:08.371Z,4.30
2022-12-06T17:51:10.925Z,4.30
2022-12-06T17:56:28.177Z,4.30
2022-12-06T18:01:58.106Z,4.30
2022-12-06T18:06:54.709Z,4.30
2022-12-06T18:11:57.231Z,4.30
2022-12-06T18:16:59.846Z,4.40
2022-12-06T18:22:02.803Z,4.30
2022-12-06T18:27:06.118Z,4.20
2022-12-06T18:32:08.760Z,4.30
2022-12-06T18:37:11.257Z,4.20
2022-12-06T18:42:14.170Z,4.20
2022-12-06T18:47:16.624Z,4.20
2022-12-06T18:52:19.123Z,4.20
2022-12-06T18:57:22.975Z,4.00
2022-12-06T19:02:27.853Z,4.00
2022-12-06T19:07:30.613Z,4.00
2022-12-06T19:12:33.087Z,4.00
2022-12-06T19:17:35.824Z,3.90
2022-12-06T19:22:38.388Z,3.90
2022-12-06T19:27:41.089Z,3.80
2022-12-06T19:32:43.922Z,3.70
2022-12-06T19:37:46.363Z,3.70
2022-12-06T19:43:07.255Z,3.70
2022-12-06T19:48:09.768Z,3.70
2022-12-06T19:53:12.340Z,3.60
2022-12-06T19:58:14.806Z,3.60
2022-12-06T20:03:17.399Z,3.60
2022-12-06T20:08:20.000Z,3.50
2022-12-06T20:13:25.631Z,3.50
2022-12-06T20:18:29.522Z,3.40
2022-12-06T20:23:32.085Z,3.40
2022-12-06T20:28:34.830Z,3.30
2022-12-06T20:33:37.630Z,3.30
2022-12-06T20:38:40.176Z,3.30
2022-12-06T20:43:44.282Z,3.30
2022-12-06T20:48:46.728Z,3.10
2022-12-06T20:53:49.908Z,5.00
2022-12-06T20:58:56.591Z,3.20
2022-12-06T21:04:00.180Z,3.10
2022-12-06T21:09:03.641Z,3.20
2022-12-06T21:14:06.533Z,3.20
2022-12-06T21:19:14.019Z,3.20
2022-12-06T21:24:20.002Z,3.10
2022-12-06T21:29:30.415Z,3.10
2022-12-06T21:34:33.748Z,3.10
2022-12-06T21:39:36.464Z,3.10
2022-12-06T21:44:38.882Z,3.00
2022-12-06T21:49:42.334Z,3.10
2022-12-06T21:54:44.766Z,3.00
2022-12-06T21:59:48.297Z,3.00
2022-12-06T22:04:50.853Z,3.00
2022-12-06T22:09:53.656Z,3.00
2022-12-06T22:14:56.143Z,2.90
2022-12-06T22:19:58.869Z,3.00
2022-12-06T22:25:01.877Z,2.90
2022-12-06T22:30:05.158Z,3.00
2022-12-06T22:35:08.124Z,2.90
2022-12-06T22:40:11.027Z,3.00
2022-12-06T22:45:13.524Z,2.90
2022-12-06T22:50:16.195Z,2.90
2022-12-06T22:55:18.723Z,2.90
2022-12-06T23:00:21.249Z,2.80
2022-12-06T23:05:23.666Z,1.10
2022-12-06T23:10:26.214Z,2.70
2022-12-06T23:15:28.864Z,2.80
2022-12-06T23:20:31.277Z,2.70
2022-12-06T23:25:33.818Z,2.70
2022-12-06T23:30:36.244Z,2.80
2022-12-06T23:35:38.819Z,2.70
2022-12-06T23:40:41.285Z,2.70
2022-12-06T23:45:43.741Z,2.70
2022-12-06T23:50:48.948Z,2.70
2022-12-06T23:55:51.476Z,2.60
